createdAt,value
2019-02-11T00:00:05.842Z,10.13
2019-02-11T00:02:47.263Z,10.09
2019-02-11T00:05:19.120Z,10.05
2019-02-11T00:07:59.134Z,10.03
2019-02-11T00:10:35.843Z,9.90
2019-02-11T00:13:32.565Z,9.87
2019-02-11T00:16:03.614Z,9.78
2019-02-11T00:18:47.406Z,9.71
2019-02-11T00:21:24.257Z,9.56
2019-02-11T00:23:59.055Z,9.38
2019-02-11T00:26:35.823Z,9.31
2019-02-11T00:29:11.613Z,9.20
2019-02-11T00:31:47.869Z,9.16
2019-02-11T00:34:20.544Z,9.07
2019-02-11T00:36:51.476Z,9.05
2019-02-11T00:39:27.004Z,9.05
2019-02-11T00:42:00.562Z,9.06
2019-02-11T00:44:33.137Z,9.05
2019-02-11T00:47:05.401Z,9.01
2019-02-11T00:49:41.257Z,8.93
2019-02-11T00:52:12.227Z,8.89
2019-02-11T00:54:59.804Z,8.86
2019-02-11T00:57:37.546Z,8.78
2019-02-11T01:00:16.840Z,8.69
2019-02-11T01:02:47.905Z,8.65
2019-02-11T01:05:24.150Z,8.61
2019-02-11T01:08:01.120Z,8.61
2019-02-11T01:10:35.066Z,8.57
2019-02-11T01:13:09.877Z,8.55
2019-02-11T01:15:51.756Z,8.54
2019-02-11T01:18:23.125Z,8.57
2019-02-11T01:20:54.438Z,8.50
2019-02-11T01:23:26.350Z,8.42
2019-02-11T01:25:57.114Z,8.33
2019-02-11T01:28:28.012Z,8.32
2019-02-11T01:30:58.915Z,8.27
2019-02-11T01:33:30.576Z,8.22
2019-02-11T01:36:01.504Z,8.24
2019-02-11T01:38:37.148Z,8.19
2019-02-11T01:41:08.576Z,8.14
2019-02-11T01:43:39.666Z,8.13
2019-02-11T01:46:13.043Z,8.14
2019-02-11T01:48:44.420Z,8.07
2019-02-11T01:51:16.692Z,8.03
2019-02-11T01:53:48.129Z,8.06
2019-02-11T01:56:22.255Z,8.11
2019-02-11T01:58:53.698Z,8.09
2019-02-11T02:01:28.811Z,8.11
2019-02-11T02:04:03.674Z,8.06
2019-02-11T02:06:34.814Z,8.08
2019-02-11T02:09:08.506Z,8.06
2019-02-11T02:11:42.451Z,8.05
2019-02-11T02:14:13.166Z,8.02
2019-02-11T02:16:47.426Z,7.93
2019-02-11T02:19:24.403Z,7.92
2019-02-11T02:21:59.305Z,7.89
2019-02-11T02:24:30.257Z,7.88
2019-02-11T02:27:05.172Z,7.90
2019-02-11T02:29:37.497Z,7.90
2019-02-11T02:32:10.441Z,7.88
2019-02-11T02:34:47.268Z,7.88
2019-02-11T02:37:18.145Z,7.86
2019-02-11T02:39:54.293Z,7.89
2019-02-11T02:42:25.821Z,7.86
2019-02-11T02:45:00.281Z,7.82
2019-02-11T02:47:33.424Z,7.78
2019-02-11T02:50:05.452Z,7.80
2019-02-11T02:52:36.238Z,7.79
2019-02-11T02:55:09.949Z,7.83
2019-02-11T02:57:42.959Z,7.84
2019-02-11T03:00:13.905Z,7.85
2019-02-11T03:02:44.747Z,7.79
2019-02-11T03:05:17.675Z,7.83
2019-02-11T03:07:52.412Z,7.84
2019-02-11T03:10:26.011Z,7.79
2019-02-11T03:12:59.157Z,7.79
2019-02-11T03:15:32.389Z,7.82
2019-02-11T03:18:03.341Z,7.81
2019-02-11T03:20:40.307Z,7.81
2019-02-11T03:23:18.177Z,7.79
2019-02-11T03:25:51.840Z,7.77
2019-02-11T03:28:26.541Z,7.79
2019-02-11T03:30:58.601Z,7.84
2019-02-11T03:33:32.005Z,7.84
2019-02-11T03:36:09.387Z,7.86
2019-02-11T03:38:41.898Z,7.90
2019-02-11T03:41:18.597Z,7.94
2019-02-11T03:43:50.072Z,7.92
2019-02-11T03:46:22.586Z,7.94
2019-02-11T03:49:00.610Z,7.90
2019-02-11T03:51:31.496Z,7.91
2019-02-11T03:54:04.619Z,8.00
2019-02-11T03:56:35.927Z,8.00
2019-02-11T03:59:06.890Z,7.99
2019-02-11T04:01:39.900Z,8.02
2019-02-11T04:04:13.908Z,8.01
2019-02-11T04:06:47.512Z,8.01
2019-02-11T04:09:18.153Z,8.04
2019-02-11T04:11:51.560Z,8.04
2019-02-11T04:14:26.253Z,8.07
2019-02-11T04:17:05.100Z,8.07
2019-02-11T04:19:36.308Z,8.11
2019-02-11T04:22:11.255Z,8.12
2019-02-11T04:24:51.845Z,8.09
2019-02-11T04:27:23.816Z,8.10
2019-02-11T04:29:55.642Z,8.09
2019-02-11T04:32:26.906Z,8.09
2019-02-11T04:35:00.532Z,8.11
2019-02-11T04:37:34.619Z,8.11
2019-02-11T04:40:10.678Z,8.10
2019-02-11T04:42:40.670Z,8.14
2019-02-11T04:45:12.265Z,8.16
2019-02-11T04:47:44.303Z,8.20
2019-02-11T04:50:18.839Z,8.26
2019-02-11T04:52:50.306Z,8.31
2019-02-11T04:55:23.927Z,8.29
2019-02-11T04:58:06.602Z,8.27
2019-02-11T05:00:38.636Z,8.27
2019-02-11T05:03:11.425Z,8.24
2019-02-11T05:05:46.588Z,8.20
2019-02-11T05:08:16.756Z,8.20
2019-02-11T05:10:55.517Z,8.21
2019-02-11T05:13:31.756Z,8.20
2019-02-11T05:16:12.806Z,8.18
2019-02-11T05:18:43.798Z,8.17
2019-02-11T05:21:18.180Z,8.19
2019-02-11T05:23:49.726Z,8.21
2019-02-11T05:26:25.356Z,8.22
2019-02-11T05:28:56.541Z,8.20
2019-02-11T05:31:27.509Z,8.14
2019-02-11T05:34:03.257Z,8.10
2019-02-11T05:36:35.509Z,8.11
2019-02-11T05:39:16.585Z,8.13
2019-02-11T05:41:47.682Z,8.07
2019-02-11T05:44:18.731Z,8.10
2019-02-11T05:46:52.537Z,8.11
2019-02-11T05:49:23.986Z,8.11
2019-02-11T05:51:57.380Z,8.09
2019-02-11T05:54:29.174Z,8.08
2019-02-11T05:57:03.829Z,8.08
2019-02-11T05:59:56.304Z,8.11
2019-02-11T06:02:39.140Z,8.13
2019-02-11T06:05:14.548Z,8.08
2019-02-11T06:07:53.941Z,8.05
2019-02-11T06:10:30.282Z,8.07
2019-02-11T06:13:04.300Z,8.11
2019-02-11T06:15:38.403Z,8.12
2019-02-11T06:18:11.540Z,8.12
2019-02-11T06:20:50.349Z,8.11
2019-02-11T06:23:21.959Z,8.05
2019-02-11T06:25:54.535Z,8.07
2019-02-11T06:28:27.928Z,8.10
2019-02-11T06:31:03.299Z,8.12
2019-02-11T06:33:35.475Z,8.14
2019-02-11T06:36:12.489Z,8.13
2019-02-11T06:38:41.242Z,8.15
2019-02-11T06:41:13.925Z,8.15
2019-02-11T06:43:49.985Z,8.11
2019-02-11T06:46:22.251Z,8.13
2019-02-11T06:48:54.445Z,8.20
2019-02-11T06:51:26.721Z,8.22
2019-02-11T06:53:58.266Z,8.24
2019-02-11T06:56:31.357Z,8.30
2019-02-11T06:59:02.527Z,8.35
2019-02-11T07:01:33.520Z,8.38
2019-02-11T07:04:06.796Z,8.36
2019-02-11T07:06:38.662Z,8.36
2019-02-11T07:09:14.154Z,8.35
2019-02-11T07:11:50.167Z,8.32
2019-02-11T07:14:27.969Z,8.32
2019-02-11T07:16:59.206Z,8.35
2019-02-11T07:19:34.482Z,8.36
2019-02-11T07:22:05.532Z,8.43
2019-02-11T07:24:43.550Z,8.47
2019-02-11T07:27:19.562Z,8.43
2019-02-11T07:29:56.882Z,8.42
2019-02-11T07:32:26.246Z,8.45
2019-02-11T07:34:58.779Z,8.44
2019-02-11T07:37:43.501Z,8.43
2019-02-11T07:40:16.610Z,8.49
2019-02-11T07:43:12.183Z,8.51
2019-02-11T07:46:01.300Z,8.53
2019-02-11T07:48:44.469Z,8.55
2019-02-11T07:51:20.282Z,8.52
2019-02-11T07:53:52.679Z,8.53
2019-02-11T07:56:25.608Z,8.62
2019-02-11T07:59:00.673Z,8.72
2019-02-11T08:01:56.426Z,8.78
2019-02-11T08:04:21.673Z,8.81
2019-02-11T08:07:02.157Z,8.81
2019-02-11T08:09:41.262Z,8.80
2019-02-11T08:12:21.875Z,8.82
2019-02-11T08:14:54.484Z,8.83
2019-02-11T08:17:30.248Z,8.89
2019-02-11T08:20:10.525Z,9.00
2019-02-11T08:22:44.219Z,9.03
2019-02-11T08:25:17.984Z,9.02
2019-02-11T08:27:51.346Z,8.99
2019-02-11T08:30:29.462Z,8.97
2019-02-11T08:33:01.611Z,9.04
2019-02-11T08:35:33.023Z,9.10
2019-02-11T08:38:14.102Z,9.10
2019-02-11T08:40:41.974Z,9.12
2019-02-11T08:43:20.447Z,9.13
2019-02-11T08:45:57.327Z,9.15
2019-02-11T08:48:39.405Z,9.23
2019-02-11T08:51:12.760Z,9.29
2019-02-11T08:53:52.079Z,9.35
2019-02-11T08:56:37.678Z,9.27
2019-02-11T08:59:17.162Z,9.28
2019-02-11T09:01:55.112Z,9.34
2019-02-11T09:04:34.235Z,9.42
2019-02-11T09:07:24.018Z,9.53
2019-02-11T09:09:59.728Z,9.62
2019-02-11T09:12:43.444Z,9.72
2019-02-11T09:15:16.111Z,9.72
2019-02-11T09:17:58.088Z,9.66
2019-02-11T09:20:56.568Z,9.60
2019-02-11T09:23:27.918Z,9.61
2019-02-11T09:26:16.684Z,9.72
2019-02-11T09:29:19.709Z,9.83
2019-02-11T09:32:38.630Z,9.77
2019-02-11T09:35:09.366Z,9.91
2019-02-11T09:38:18.910Z,9.96
2019-02-11T09:40:38.976Z,9.91
2019-02-11T09:43:12.651Z,9.95
2019-02-11T09:45:48.329Z,9.92
2019-02-11T09:48:27.040Z,9.86
2019-02-11T09:51:03.609Z,9.81
2019-02-11T09:53:36.346Z,9.80
2019-02-11T09:56:26.762Z,9.86
2019-02-11T09:59:04.930Z,9.94
2019-02-11T10:01:42.946Z,9.98
2019-02-11T10:04:18.391Z,10.03
2019-02-11T10:06:55.035Z,10.14
2019-02-11T10:09:28.428Z,10.11
2019-02-11T10:12:04.217Z,10.04
2019-02-11T10:14:41.119Z,9.94
2019-02-11T10:17:14.754Z,9.90
2019-02-11T10:20:09.169Z,9.86
2019-02-11T10:22:40.529Z,9.86
2019-02-11T10:25:23.358Z,9.86
2019-02-11T10:28:01.560Z,9.80
2019-02-11T10:30:37.612Z,9.86
2019-02-11T10:33:27.672Z,9.89
2019-02-11T10:36:10.950Z,9.95
2019-02-11T10:39:08.312Z,9.94
2019-02-11T10:42:18.544Z,9.95
2019-02-11T10:44:45.486Z,9.98
2019-02-11T10:48:26.679Z,10.14
2019-02-11T10:50:20.120Z,10.25
2019-02-11T10:52:57.323Z,10.27
2019-02-11T10:55:44.736Z,10.24
2019-02-11T10:58:58.468Z,10.14
2019-02-11T11:01:45.523Z,10.12
2019-02-11T11:04:22.599Z,10.10
2019-02-11T11:07:04.263Z,10.15
2019-02-11T11:09:37.550Z,10.19
2019-02-11T11:12:26.224Z,10.19
2019-02-11T11:15:28.858Z,10.18
2019-02-11T11:17:53.277Z,10.19
2019-02-11T11:23:30.485Z,10.15
2019-02-11T11:26:05.036Z,10.15
2019-02-11T11:28:35.686Z,10.23
2019-02-11T11:31:08.523Z,10.29
2019-02-11T11:33:47.154Z,10.24
2019-02-11T11:36:23.855Z,10.20
2019-02-11T11:39:11.600Z,10.08
2019-02-11T11:41:57.541Z,9.96
2019-02-11T11:44:41.119Z,9.87
2019-02-11T11:47:13.807Z,9.81
2019-02-11T11:49:56.108Z,9.75
2019-02-11T11:52:26.472Z,9.84
2019-02-11T11:55:06.366Z,10.06
2019-02-11T11:57:39.916Z,10.63
2019-02-11T12:01:19.233Z,10.85
2019-02-11T12:04:06.121Z,10.69
2019-02-11T12:06:37.726Z,10.62
2019-02-11T12:09:23.575Z,10.53
2019-02-11T12:12:57.738Z,10.55
2019-02-11T12:16:08.723Z,10.45
2019-02-11T12:18:54.159Z,10.37
2019-02-11T12:22:12.433Z,10.10
2019-02-11T12:24:47.474Z,9.84
2019-02-11T12:27:45.265Z,9.71
2019-02-11T12:31:14.655Z,9.82
2019-02-11T12:34:31.169Z,9.95
2019-02-11T12:37:20.167Z,9.94
2019-02-11T12:40:27.919Z,9.96
2019-02-11T12:55:00.967Z,9.93
2019-02-11T13:02:23.936Z,9.93
2019-02-11T13:05:44.931Z,10.30
2019-02-11T13:08:34.988Z,10.25
2019-02-11T13:11:27.573Z,10.22
2019-02-11T13:14:40.965Z,10.25
2019-02-11T13:17:30.233Z,10.55
2019-02-11T13:20:23.395Z,10.71
2019-02-11T13:23:21.410Z,10.79
2019-02-11T13:25:54.244Z,10.83
2019-02-11T13:28:36.958Z,10.85
2019-02-11T13:31:41.963Z,10.80
2019-02-11T13:34:16.091Z,10.56
2019-02-11T13:37:16.343Z,10.39
2019-02-11T13:39:48.653Z,10.61
2019-02-11T13:42:28.124Z,10.77
2019-02-11T13:45:54.986Z,11.04
2019-02-11T13:48:40.421Z,11.24
2019-02-11T13:51:37.589Z,11.19
2019-02-11T13:54:19.529Z,11.02
2019-02-11T14:01:14.789Z,10.80
2019-02-11T14:04:02.102Z,10.52
2019-02-11T14:06:31.113Z,10.32
2019-02-11T14:09:13.578Z,10.31
2019-02-11T14:11:55.319Z,10.23
2019-02-11T14:14:32.915Z,10.08
2019-02-11T14:17:07.016Z,10.04
2019-02-11T14:20:02.359Z,10.00
2019-02-11T14:22:36.501Z,9.87
2019-02-11T14:25:39.061Z,9.90
2019-02-11T14:27:52.376Z,9.97
2019-02-11T14:30:23.918Z,10.04
2019-02-11T14:32:57.733Z,10.24
2019-02-11T14:35:45.252Z,10.33
2019-02-11T14:38:34.558Z,10.30
2019-02-11T14:41:05.297Z,10.23
2019-02-11T14:43:37.903Z,10.24
2019-02-11T14:46:13.526Z,10.34
2019-02-11T14:48:44.585Z,10.42
2019-02-11T14:51:21.771Z,10.39
2019-02-11T14:53:52.663Z,10.30
2019-02-11T14:56:26.377Z,10.32
2019-02-11T14:59:02.751Z,10.26
2019-02-11T15:02:08.257Z,10.15
2019-02-11T15:07:44.076Z,10.18
2019-02-11T15:10:32.038Z,10.10
2019-02-11T15:13:08.286Z,9.59
2019-02-11T15:16:11.181Z,8.66
2019-02-11T15:19:09.004Z,8.17
2019-02-11T15:22:11.842Z,8.05
2019-02-11T15:24:48.968Z,8.06
2019-02-11T15:28:03.425Z,8.08
2019-02-11T15:30:45.354Z,8.10
2019-02-11T15:36:23.302Z,8.21
2019-02-11T15:39:26.701Z,8.24
2019-02-11T15:42:18.996Z,8.20
2019-02-11T15:45:06.582Z,8.12
2019-02-11T15:47:48.354Z,8.00
2019-02-11T15:50:42.058Z,7.98
2019-02-11T15:53:40.298Z,7.95
2019-02-11T15:56:37.674Z,7.87
2019-02-11T15:59:45.083Z,7.78
2019-02-11T16:02:29.292Z,7.71
2019-02-11T16:05:33.936Z,7.75
2019-02-11T16:08:20.305Z,7.69
2019-02-11T16:11:02.811Z,7.65
2019-02-11T16:13:59.391Z,7.63
2019-02-11T16:17:02.424Z,7.59
2019-02-11T16:20:16.737Z,7.54
2019-02-11T16:22:53.060Z,7.52
2019-02-11T16:25:59.934Z,7.59
2019-02-11T16:29:27.332Z,7.61
2019-02-11T16:32:06.557Z,7.60
2019-02-11T16:34:41.722Z,7.60
2019-02-11T16:37:21.078Z,7.61
2019-02-11T16:43:39.363Z,7.67
2019-02-11T16:48:42.892Z,7.73
2019-02-11T16:49:34.258Z,7.74
2019-02-11T16:52:12.907Z,7.75
2019-02-11T16:55:15.955Z,7.82
2019-02-11T16:57:57.043Z,7.88
2019-02-11T17:00:45.985Z,7.82
2019-02-11T17:03:34.443Z,7.78
2019-02-11T17:06:17.545Z,7.69
2019-02-11T17:09:21.951Z,7.64
2019-02-11T17:11:53.844Z,7.57
2019-02-11T17:14:34.766Z,7.55
2019-02-11T17:17:19.851Z,7.52
2019-02-11T17:20:58.457Z,7.51
2019-02-11T17:23:14.746Z,7.52
2019-02-11T17:25:52.216Z,7.52
2019-02-11T17:28:38.216Z,7.54
2019-02-11T17:31:25.468Z,7.56
2019-02-11T17:34:12.301Z,7.57
2019-02-11T17:40:20.490Z,7.57
2019-02-11T17:44:30.507Z,7.52
2019-02-11T17:46:44.085Z,7.53
2019-02-11T17:48:37.492Z,7.52
2019-02-11T17:56:36.756Z,7.55
2019-02-11T18:01:23.872Z,7.70
2019-02-11T18:09:01.500Z,7.76
2019-02-11T18:11:20.656Z,7.64
2019-02-11T18:21:47.305Z,7.39
2019-02-11T18:22:09.520Z,7.42
2019-02-11T18:26:16.941Z,7.36
2019-02-11T18:27:27.885Z,7.34
2019-02-11T18:30:20.277Z,7.34
2019-02-11T18:33:32.502Z,7.36
2019-02-11T18:36:17.022Z,7.33
2019-02-11T18:38:58.886Z,7.30
2019-02-11T18:41:41.068Z,7.27
2019-02-11T18:44:11.815Z,7.24
2019-02-11T18:46:49.490Z,7.23
2019-02-11T18:50:17.195Z,7.20
2019-02-11T18:52:56.291Z,7.20
2019-02-11T18:55:30.388Z,7.19
2019-02-11T18:58:01.582Z,7.18
2019-02-11T19:03:44.657Z,7.19
2019-02-11T19:06:48.672Z,7.15
2019-02-11T19:09:44.241Z,7.11
2019-02-11T19:13:00.772Z,7.08
2019-02-11T19:16:40.457Z,7.01
2019-02-11T19:21:38.896Z,6.98
2019-02-11T19:24:17.027Z,7.01
2019-02-11T19:30:41.221Z,6.99
2019-02-11T19:33:16.250Z,6.93
2019-02-11T19:36:16.909Z,6.91
2019-02-11T19:39:26.145Z,6.86
2019-02-11T19:42:14.455Z,6.79
2019-02-11T19:45:10.955Z,6.74
2019-02-11T19:48:02.435Z,6.71
2019-02-11T19:51:24.836Z,6.65
2019-02-11T19:53:39.584Z,6.63
2019-02-11T19:56:23.529Z,6.63
2019-02-11T19:59:28.142Z,6.61
2019-02-11T20:02:23.077Z,6.58
2019-02-11T20:05:20.224Z,6.53
2019-02-11T20:08:15.513Z,6.50
2019-02-11T20:11:12.994Z,6.49
2019-02-11T20:14:02.843Z,6.44
2019-02-11T20:16:40.507Z,6.43
2019-02-11T20:19:20.429Z,6.39
2019-02-11T20:23:47.000Z,6.38
2019-02-11T20:25:09.529Z,6.37
2019-02-11T20:30:41.768Z,6.30
2019-02-11T20:33:30.168Z,6.27
2019-02-11T20:36:10.120Z,6.25
2019-02-11T20:38:42.880Z,6.23
2019-02-11T20:41:21.523Z,6.19
2019-02-11T20:44:18.282Z,6.23
2019-02-11T20:47:05.507Z,6.19
2019-02-11T20:49:48.457Z,6.16
2019-02-11T20:52:38.015Z,6.14
2019-02-11T20:55:13.274Z,6.09
2019-02-11T20:57:57.246Z,6.05
2019-02-11T21:00:45.390Z,6.06
2019-02-11T21:03:33.397Z,6.05
2019-02-11T21:06:24.757Z,6.04
2019-02-11T21:10:41.304Z,6.03
2019-02-11T21:17:00.532Z,5.97
2019-02-11T21:19:37.588Z,5.97
2019-02-11T21:23:23.357Z,6.00
2019-02-11T21:25:54.472Z,5.96
2019-02-11T21:31:18.685Z,5.99
2019-02-11T21:34:15.990Z,5.98
2019-02-11T21:37:14.343Z,5.99
2019-02-11T21:39:49.406Z,5.97
2019-02-11T21:42:37.103Z,5.97
2019-02-11T21:44:59.664Z,5.96
2019-02-11T21:47:46.958Z,5.95
2019-02-11T21:50:26.421Z,5.97
2019-02-11T21:52:54.227Z,5.98
2019-02-11T21:55:30.780Z,5.99
2019-02-11T21:58:09.523Z,5.97
2019-02-11T22:00:39.553Z,5.98
2019-02-11T22:06:12.154Z,5.94
2019-02-11T22:09:10.690Z,5.92
2019-02-11T22:11:54.790Z,5.92
2019-02-11T22:14:33.823Z,5.90
2019-02-11T22:17:14.303Z,5.91
2019-02-11T22:19:47.357Z,5.89
2019-02-11T22:22:20.889Z,5.84
2019-02-11T22:25:01.102Z,5.87
2019-02-11T22:27:36.164Z,5.87
2019-02-11T22:30:17.512Z,5.87
2019-02-11T22:33:10.362Z,5.90
2019-02-11T22:35:58.682Z,5.89
2019-02-11T22:38:36.688Z,5.92
2019-02-11T22:41:17.862Z,5.93
2019-02-11T22:44:04.706Z,5.96
2019-02-11T22:46:38.791Z,5.98
2019-02-11T22:49:20.113Z,5.95
2019-02-11T22:52:27.411Z,5.95
2019-02-11T22:55:01.755Z,5.93
2019-02-11T22:57:43.332Z,5.94
2019-02-11T23:00:57.693Z,5.93
2019-02-11T23:03:40.096Z,5.91
2019-02-11T23:06:13.995Z,5.95
2019-02-11T23:08:56.750Z,6.00
2019-02-11T23:11:46.101Z,6.08
2019-02-11T23:14:32.387Z,6.12
2019-02-11T23:17:13.677Z,6.22
2019-02-11T23:20:19.387Z,6.31
2019-02-11T23:26:35.365Z,6.37
2019-02-11T23:29:17.018Z,6.36
2019-02-11T23:32:28.093Z,6.35
2019-02-11T23:35:11.430Z,6.42
2019-02-11T23:37:51.856Z,6.45
2019-02-11T23:40:29.521Z,6.52
2019-02-11T23:43:08.420Z,6.61
2019-02-11T23:45:38.937Z,6.63
2019-02-11T23:48:23.359Z,6.66
2019-02-11T23:51:24.226Z,6.71
2019-02-11T23:57:42.659Z,6.70
